sensor_id;sensor_type;location;lat;lon;timestamp;P1;durP1;ratioP1;P2;durP2;ratioP2
22449;SDS011;11392;57.390;-2.468;2023-05-18T00:00:31;5.82;;;4.28;;
22449;SDS011;11392;57.390;-2.468;2023-05-18T00:02:59;7.55;;;5.30;;
22449;SDS011;11392;57.390;-2.468;2023-05-18T00:05:27;8.70;;;5.35;;
22449;SDS011;11392;57.390;-2.468;2023-05-18T00:07:59;8.88;;;5.78;;
22449;SDS011;11392;57.390;-2.468;2023-05-18T00:10:27;6.68;;;5.10;;
22449;SDS011;11392;57.390;-2.468;2023-05-18T00:12:54;6.82;;;4.85;;
22449;SDS011;11392;57.390;-2.468;2023-05-18T00:15:21;10.25;;;6.07;;
22449;SDS011;11392;57.390;-2.468;2023-05-18T00:17:48;9.18;;;5.93;;
22449;SDS011;11392;57.390;-2.468;2023-05-18T00:20:16;7.50;;;5.60;;
22449;SDS011;11392;57.390;-2.468;2023-05-18T00:22:44;5.97;;;4.38;;
22449;SDS011;11392;57.390;-2.468;2023-05-18T00:25:13;6.60;;;3.75;;
22449;SDS011;11392;57.390;-2.468;2023-05-18T00:27:42;5.93;;;4.15;;
22449;SDS011;11392;57.390;-2.468;2023-05-18T00:30:09;4.28;;;3.75;;
22449;SDS011;11392;57.390;-2.468;2023-05-18T00:32:36;5.57;;;4.55;;
22449;SDS011;11392;57.390;-2.468;2023-05-18T00:40:27;4.95;;;3.63;;
22449;SDS011;11392;57.390;-2.468;2023-05-18T00:42:55;5.80;;;4.43;;
22449;SDS011;11392;57.390;-2.468;2023-05-18T00:45:22;9.88;;;5.10;;
22449;SDS011;11392;57.390;-2.468;2023-05-18T00:47:49;5.32;;;4.28;;
22449;SDS011;11392;57.390;-2.468;2023-05-18T00:50:17;6.43;;;5.00;;
22449;SDS011;11392;57.390;-2.468;2023-05-18T00:52:45;6.18;;;4.28;;
22449;SDS011;11392;57.390;-2.468;2023-05-18T00:55:12;5.05;;;3.55;;
22449;SDS011;11392;57.390;-2.468;2023-05-18T00:57:39;6.38;;;4.78;;
22449;SDS011;11392;57.390;-2.468;2023-05-18T01:00:12;6.50;;;4.65;;
22449;SDS011;11392;57.390;-2.468;2023-05-18T01:02:41;6.13;;;4.13;;
22449;SDS011;11392;57.390;-2.468;2023-05-18T01:05:11;5.75;;;4.13;;
22449;SDS011;11392;57.390;-2.468;2023-05-18T01:07:39;7.60;;;4.47;;
22449;SDS011;11392;57.390;-2.468;2023-05-18T01:10:10;5.93;;;3.70;;
22449;SDS011;11392;57.390;-2.468;2023-05-18T01:12:40;7.47;;;4.90;;
22449;SDS011;11392;57.390;-2.468;2023-05-18T01:15:15;4.13;;;3.60;;
22449;SDS011;11392;57.390;-2.468;2023-05-18T01:18:00;4.75;;;3.80;;
22449;SDS011;11392;57.390;-2.468;2023-05-18T01:20:31;8.23;;;4.00;;
22449;SDS011;11392;57.390;-2.468;2023-05-18T01:26:04;5.40;;;3.50;;
22449;SDS011;11392;57.390;-2.468;2023-05-18T01:28:59;4.60;;;3.88;;
22449;SDS011;11392;57.390;-2.468;2023-05-18T01:31:29;5.55;;;3.72;;
22449;SDS011;11392;57.390;-2.468;2023-05-18T01:33:57;3.55;;;3.20;;
22449;SDS011;11392;57.390;-2.468;2023-05-18T01:36:24;7.28;;;4.25;;
22449;SDS011;11392;57.390;-2.468;2023-05-18T01:38:51;6.82;;;4.97;;
22449;SDS011;11392;57.390;-2.468;2023-05-18T01:41:24;7.35;;;4.65;;
22449;SDS011;11392;57.390;-2.468;2023-05-18T01:44:07;9.48;;;4.70;;
22449;SDS011;11392;57.390;-2.468;2023-05-18T01:52:23;6.85;;;4.70;;
22449;SDS011;11392;57.390;-2.468;2023-05-18T01:55:02;7.50;;;4.82;;
22449;SDS011;11392;57.390;-2.468;2023-05-18T01:57:30;5.75;;;3.83;;
22449;SDS011;11392;57.390;-2.468;2023-05-18T02:00:00;5.43;;;3.55;;
22449;SDS011;11392;57.390;-2.468;2023-05-18T02:02:31;7.20;;;5.22;;
22449;SDS011;11392;57.390;-2.468;2023-05-18T02:04:58;7.80;;;5.05;;
22449;SDS011;11392;57.390;-2.468;2023-05-18T02:07:25;9.13;;;4.63;;
22449;SDS011;11392;57.390;-2.468;2023-05-18T02:09:52;9.88;;;6.03;;
22449;SDS011;11392;57.390;-2.468;2023-05-18T02:12:19;6.97;;;5.43;;
22449;SDS011;11392;57.390;-2.468;2023-05-18T02:14:46;7.55;;;5.15;;
22449;SDS011;11392;57.390;-2.468;2023-05-18T02:17:13;5.45;;;4.35;;
22449;SDS011;11392;57.390;-2.468;2023-05-18T02:19:41;7.50;;;4.82;;
22449;SDS011;11392;57.390;-2.468;2023-05-18T02:22:08;7.07;;;5.25;;
22449;SDS011;11392;57.390;-2.468;2023-05-18T02:24:35;6.85;;;4.68;;
22449;SDS011;11392;57.390;-2.468;2023-05-18T02:27:03;8.38;;;5.28;;
22449;SDS011;11392;57.390;-2.468;2023-05-18T02:29:31;9.50;;;5.60;;
22449;SDS011;11392;57.390;-2.468;2023-05-18T02:31:58;8.10;;;5.03;;
22449;SDS011;11392;57.390;-2.468;2023-05-18T02:34:25;6.95;;;5.00;;
22449;SDS011;11392;57.390;-2.468;2023-05-18T02:36:52;9.02;;;5.38;;
22449;SDS011;11392;57.390;-2.468;2023-05-18T02:39:23;6.53;;;4.82;;
22449;SDS011;11392;57.390;-2.468;2023-05-18T02:41:50;6.72;;;5.45;;
22449;SDS011;11392;57.390;-2.468;2023-05-18T02:44:17;7.65;;;5.35;;
22449;SDS011;11392;57.390;-2.468;2023-05-18T02:46:44;6.47;;;4.43;;
22449;SDS011;11392;57.390;-2.468;2023-05-18T02:49:11;7.60;;;5.40;;
22449;SDS011;11392;57.390;-2.468;2023-05-18T02:51:38;6.95;;;5.00;;
22449;SDS011;11392;57.390;-2.468;2023-05-18T02:54:05;6.53;;;4.55;;
22449;SDS011;11392;57.390;-2.468;2023-05-18T02:56:32;7.03;;;4.50;;
22449;SDS011;11392;57.390;-2.468;2023-05-18T02:58:59;5.90;;;4.38;;
22449;SDS011;11392;57.390;-2.468;2023-05-18T03:01:26;6.95;;;4.88;;
22449;SDS011;11392;57.390;-2.468;2023-05-18T03:03:53;7.38;;;4.65;;
22449;SDS011;11392;57.390;-2.468;2023-05-18T03:06:24;7.43;;;4.85;;
22449;SDS011;11392;57.390;-2.468;2023-05-18T03:08:52;7.15;;;4.82;;
22449;SDS011;11392;57.390;-2.468;2023-05-18T03:11:22;7.90;;;5.90;;
22449;SDS011;11392;57.390;-2.468;2023-05-18T03:13:49;5.72;;;4.35;;
22449;SDS011;11392;57.390;-2.468;2023-05-18T03:16:16;6.25;;;4.25;;
22449;SDS011;11392;57.390;-2.468;2023-05-18T03:18:44;6.80;;;4.90;;
22449;SDS011;11392;57.390;-2.468;2023-05-18T03:21:11;6.78;;;4.97;;
22449;SDS011;11392;57.390;-2.468;2023-05-18T03:23:41;6.68;;;4.72;;
22449;SDS011;11392;57.390;-2.468;2023-05-18T03:26:08;5.05;;;3.92;;
22449;SDS011;11392;57.390;-2.468;2023-05-18T03:28:37;5.63;;;4.05;;
22449;SDS011;11392;57.390;-2.468;2023-05-18T03:31:04;5.35;;;4.10;;
22449;SDS011;11392;57.390;-2.468;2023-05-18T03:33:32;6.80;;;4.50;;
22449;SDS011;11392;57.390;-2.468;2023-05-18T03:36:01;5.88;;;4.20;;
22449;SDS011;11392;57.390;-2.468;2023-05-18T03:38:30;8.95;;;4.78;;
22449;SDS011;11392;57.390;-2.468;2023-05-18T03:40:57;5.22;;;4.25;;
22449;SDS011;11392;57.390;-2.468;2023-05-18T03:43:24;5.70;;;4.32;;
22449;SDS011;11392;57.390;-2.468;2023-05-18T03:45:51;7.28;;;4.25;;
22449;SDS011;11392;57.390;-2.468;2023-05-18T03:48:19;7.30;;;4.35;;
22449;SDS011;11392;57.390;-2.468;2023-05-18T03:50:47;6.38;;;4.10;;
22449;SDS011;11392;57.390;-2.468;2023-05-18T03:53:14;4.78;;;4.28;;
22449;SDS011;11392;57.390;-2.468;2023-05-18T03:55:44;7.05;;;4.75;;
22449;SDS011;11392;57.390;-2.468;2023-05-18T03:58:11;6.95;;;4.78;;
22449;SDS011;11392;57.390;-2.468;2023-05-18T04:00:38;6.13;;;4.80;;
22449;SDS011;11392;57.390;-2.468;2023-05-18T04:03:05;5.78;;;4.97;;
22449;SDS011;11392;57.390;-2.468;2023-05-18T04:05:33;6.53;;;4.22;;
22449;SDS011;11392;57.390;-2.468;2023-05-18T04:08:00;7.22;;;4.30;;
22449;SDS011;11392;57.390;-2.468;2023-05-18T04:10:27;4.53;;;3.55;;
22449;SDS011;11392;57.390;-2.468;2023-05-18T04:12:54;5.38;;;4.55;;
22449;SDS011;11392;57.390;-2.468;2023-05-18T04:15:21;6.78;;;4.60;;
22449;SDS011;11392;57.390;-2.468;2023-05-18T04:17:49;5.30;;;4.25;;
22449;SDS011;11392;57.390;-2.468;2023-05-18T04:20:16;4.65;;;3.78;;
22449;SDS011;11392;57.390;-2.468;2023-05-18T04:22:45;6.68;;;4.90;;
22449;SDS011;11392;57.390;-2.468;2023-05-18T04:25:14;6.85;;;4.47;;
22449;SDS011;11392;57.390;-2.468;2023-05-18T04:27:41;5.75;;;4.13;;
22449;SDS011;11392;57.390;-2.468;2023-05-18T04:30:11;5.82;;;4.15;;
22449;SDS011;11392;57.390;-2.468;2023-05-18T04:32:39;4.95;;;4.05;;
22449;SDS011;11392;57.390;-2.468;2023-05-18T04:35:08;5.68;;;4.22;;
22449;SDS011;11392;57.390;-2.468;2023-05-18T04:37:37;6.10;;;5.00;;
22449;SDS011;11392;57.390;-2.468;2023-05-18T04:40:09;4.82;;;4.20;;
22449;SDS011;11392;57.390;-2.468;2023-05-18T04:42:40;5.82;;;4.68;;
22449;SDS011;11392;57.390;-2.468;2023-05-18T04:45:11;7.22;;;4.95;;
22449;SDS011;11392;57.390;-2.468;2023-05-18T04:47:46;6.68;;;4.30;;
22449;SDS011;11392;57.390;-2.468;2023-05-18T04:56:11;6.57;;;4.55;;
22449;SDS011;11392;57.390;-2.468;2023-05-18T05:04:13;4.60;;;4.10;;
22449;SDS011;11392;57.390;-2.468;2023-05-18T05:06:40;4.93;;;3.92;;
22449;SDS011;11392;57.390;-2.468;2023-05-18T05:09:08;6.40;;;4.10;;
22449;SDS011;11392;57.390;-2.468;2023-05-18T05:11:35;7.22;;;4.10;;
22449;SDS011;11392;57.390;-2.468;2023-05-18T05:14:02;5.03;;;3.67;;
22449;SDS011;11392;57.390;-2.468;2023-05-18T05:16:29;5.82;;;3.70;;
22449;SDS011;11392;57.390;-2.468;2023-05-18T05:18:56;5.30;;;4.25;;
22449;SDS011;11392;57.390;-2.468;2023-05-18T05:23:58;6.07;;;3.40;;
22449;SDS011;11392;57.390;-2.468;2023-05-18T05:26:30;4.53;;;3.58;;
22449;SDS011;11392;57.390;-2.468;2023-05-18T05:28:57;4.47;;;3.47;;
22449;SDS011;11392;57.390;-2.468;2023-05-18T05:31:24;5.00;;;3.22;;
22449;SDS011;11392;57.390;-2.468;2023-05-18T05:33:52;5.38;;;3.28;;
22449;SDS011;11392;57.390;-2.468;2023-05-18T07:56:15;5.28;;;2.92;;
22449;SDS011;11392;57.390;-2.468;2023-05-18T08:01:17;3.22;;;2.83;;
22449;SDS011;11392;57.390;-2.468;2023-05-18T08:23:49;5.93;;;2.70;;
22449;SDS011;11392;57.390;-2.468;2023-05-18T08:26:16;3.13;;;2.78;;
22449;SDS011;11392;57.390;-2.468;2023-05-18T08:28:43;3.70;;;2.58;;
22449;SDS011;11392;57.390;-2.468;2023-05-18T08:31:11;4.57;;;3.20;;
22449;SDS011;11392;57.390;-2.468;2023-05-18T08:33:38;2.83;;;2.10;;
22449;SDS011;11392;57.390;-2.468;2023-05-18T08:36:06;3.42;;;2.35;;
22449;SDS011;11392;57.390;-2.468;2023-05-18T08:38:34;4.60;;;2.50;;
22449;SDS011;11392;57.390;-2.468;2023-05-18T08:41:04;4.88;;;2.30;;
22449;SDS011;11392;57.390;-2.468;2023-05-18T08:43:41;5.35;;;2.42;;
22449;SDS011;11392;57.390;-2.468;2023-05-18T08:48:42;2.78;;;2.20;;
22449;SDS011;11392;57.390;-2.468;2023-05-18T08:51:12;4.40;;;2.50;;
22449;SDS011;11392;57.390;-2.468;2023-05-18T08:53:48;6.35;;;2.95;;
22449;SDS011;11392;57.390;-2.468;2023-05-18T08:56:23;2.08;;;1.83;;
22449;SDS011;11392;57.390;-2.468;2023-05-18T08:58:55;2.35;;;2.15;;
22449;SDS011;11392;57.390;-2.468;2023-05-18T09:01:25;2.83;;;2.28;;
22449;SDS011;11392;57.390;-2.468;2023-05-18T09:03:55;3.85;;;2.30;;
22449;SDS011;11392;57.390;-2.468;2023-05-18T09:06:23;3.38;;;2.30;;
22449;SDS011;11392;57.390;-2.468;2023-05-18T09:08:51;4.07;;;2.80;;
22449;SDS011;11392;57.390;-2.468;2023-05-18T09:11:21;3.22;;;2.20;;
22449;SDS011;11392;57.390;-2.468;2023-05-18T09:13:49;3.35;;;2.13;;
22449;SDS011;11392;57.390;-2.468;2023-05-18T09:16:17;3.22;;;2.42;;
22449;SDS011;11392;57.390;-2.468;2023-05-18T09:18:44;2.80;;;2.10;;
22449;SDS011;11392;57.390;-2.468;2023-05-18T09:21:11;2.90;;;2.50;;
22449;SDS011;11392;57.390;-2.468;2023-05-18T09:23:39;4.45;;;2.95;;
22449;SDS011;11392;57.390;-2.468;2023-05-18T09:26:09;2.50;;;2.30;;
22449;SDS011;11392;57.390;-2.468;2023-05-18T09:31:08;4.90;;;2.40;;
22449;SDS011;11392;57.390;-2.468;2023-05-18T09:33:38;3.55;;;2.70;;
22449;SDS011;11392;57.390;-2.468;2023-05-18T09:36:07;4.53;;;2.67;;
22449;SDS011;11392;57.390;-2.468;2023-05-18T09:38:35;4.32;;;2.90;;
22449;SDS011;11392;57.390;-2.468;2023-05-18T09:41:13;3.38;;;2.65;;
22449;SDS011;11392;57.390;-2.468;2023-05-18T09:43:43;2.97;;;2.53;;
22449;SDS011;11392;57.390;-2.468;2023-05-18T09:46:12;4.60;;;2.80;;
22449;SDS011;11392;57.390;-2.468;2023-05-18T09:48:40;2.25;;;2.05;;
22449;SDS011;11392;57.390;-2.468;2023-05-18T09:51:10;2.55;;;2.35;;
22449;SDS011;11392;57.390;-2.468;2023-05-18T09:53:46;3.67;;;2.30;;
22449;SDS011;11392;57.390;-2.468;2023-05-18T09:56:18;5.35;;;2.70;;
22449;SDS011;11392;57.390;-2.468;2023-05-18T09:58:46;4.30;;;2.20;;
22449;SDS011;11392;57.390;-2.468;2023-05-18T10:01:13;3.58;;;2.25;;
22449;SDS011;11392;57.390;-2.468;2023-05-18T10:06:25;3.33;;;2.30;;
22449;SDS011;11392;57.390;-2.468;2023-05-18T10:08:52;4.20;;;2.40;;
22449;SDS011;11392;57.390;-2.468;2023-05-18T10:11:23;3.25;;;2.38;;
22449;SDS011;11392;57.390;-2.468;2023-05-18T10:13:53;2.92;;;2.20;;
22449;SDS011;11392;57.390;-2.468;2023-05-18T10:16:23;3.45;;;2.50;;
22449;SDS011;11392;57.390;-2.468;2023-05-18T10:18:51;4.13;;;2.67;;
22449;SDS011;11392;57.390;-2.468;2023-05-18T10:21:20;3.53;;;2.70;;
22449;SDS011;11392;57.390;-2.468;2023-05-18T10:23:52;3.20;;;2.55;;
22449;SDS011;11392;57.390;-2.468;2023-05-18T10:26:21;3.00;;;2.28;;
22449;SDS011;11392;57.390;-2.468;2023-05-18T10:28:53;3.40;;;3.03;;
22449;SDS011;11392;57.390;-2.468;2023-05-18T10:31:22;2.90;;;2.25;;
22449;SDS011;11392;57.390;-2.468;2023-05-18T10:33:51;2.47;;;2.20;;
22449;SDS011;11392;57.390;-2.468;2023-05-18T10:36:19;4.78;;;2.63;;
22449;SDS011;11392;57.390;-2.468;2023-05-18T10:38:51;4.93;;;2.55;;
22449;SDS011;11392;57.390;-2.468;2023-05-18T10:41:19;4.28;;;2.83;;
22449;SDS011;11392;57.390;-2.468;2023-05-18T10:43:48;3.50;;;2.38;;
22449;SDS011;11392;57.390;-2.468;2023-05-18T10:46:16;3.35;;;2.47;;
22449;SDS011;11392;57.390;-2.468;2023-05-18T10:48:44;6.10;;;2.78;;
22449;SDS011;11392;57.390;-2.468;2023-05-18T10:51:13;3.88;;;2.80;;
22449;SDS011;11392;57.390;-2.468;2023-05-18T10:53:41;3.67;;;2.45;;
22449;SDS011;11392;57.390;-2.468;2023-05-18T10:56:15;4.57;;;2.33;;
22449;SDS011;11392;57.390;-2.468;2023-05-18T10:58:43;3.95;;;2.50;;
22449;SDS011;11392;57.390;-2.468;2023-05-18T11:01:11;3.60;;;2.50;;
22449;SDS011;11392;57.390;-2.468;2023-05-18T11:03:39;3.22;;;2.25;;
22449;SDS011;11392;57.390;-2.468;2023-05-18T11:06:08;4.13;;;2.58;;
22449;SDS011;11392;57.390;-2.468;2023-05-18T11:08:46;2.75;;;2.15;;
22449;SDS011;11392;57.390;-2.468;2023-05-18T11:11:15;3.90;;;2.17;;
22449;SDS011;11392;57.390;-2.468;2023-05-18T11:13:48;6.28;;;2.47;;
22449;SDS011;11392;57.390;-2.468;2023-05-18T11:16:17;2.92;;;2.33;;
22449;SDS011;11392;57.390;-2.468;2023-05-18T11:18:47;3.92;;;2.40;;
22449;SDS011;11392;57.390;-2.468;2023-05-18T11:21:19;3.00;;;2.20;;
22449;SDS011;11392;57.390;-2.468;2023-05-18T11:26:54;3.05;;;1.90;;
22449;SDS011;11392;57.390;-2.468;2023-05-18T11:29:34;3.40;;;1.67;;
22449;SDS011;11392;57.390;-2.468;2023-05-18T11:32:20;3.20;;;1.98;;
22449;SDS011;11392;57.390;-2.468;2023-05-18T11:34:55;3.03;;;2.03;;
22449;SDS011;11392;57.390;-2.468;2023-05-18T11:40:10;2.95;;;1.85;;
22449;SDS011;11392;57.390;-2.468;2023-05-18T11:42:39;2.20;;;2.00;;
22449;SDS011;11392;57.390;-2.468;2023-05-18T11:45:07;4.63;;;2.25;;
22449;SDS011;11392;57.390;-2.468;2023-05-18T11:47:35;4.28;;;1.95;;
22449;SDS011;11392;57.390;-2.468;2023-05-18T11:50:06;4.03;;;2.05;;
22449;SDS011;11392;57.390;-2.468;2023-05-18T11:52:45;2.65;;;1.90;;
22449;SDS011;11392;57.390;-2.468;2023-05-18T11:55:14;2.55;;;2.33;;
22449;SDS011;11392;57.390;-2.468;2023-05-18T11:57:43;2.17;;;1.60;;
22449;SDS011;11392;57.390;-2.468;2023-05-18T12:00:14;2.90;;;1.80;;
22449;SDS011;11392;57.390;-2.468;2023-05-18T12:02:45;2.30;;;1.50;;
22449;SDS011;11392;57.390;-2.468;2023-05-18T12:05:15;2.63;;;1.65;;
22449;SDS011;11392;57.390;-2.468;2023-05-18T12:07:42;1.65;;;1.30;;
22449;SDS011;11392;57.390;-2.468;2023-05-18T12:10:11;2.08;;;1.58;;
22449;SDS011;11392;57.390;-2.468;2023-05-18T12:12:42;4.07;;;1.58;;
22449;SDS011;11392;57.390;-2.468;2023-05-18T12:15:14;1.92;;;1.42;;
22449;SDS011;11392;57.390;-2.468;2023-05-18T12:17:43;1.83;;;1.48;;
22449;SDS011;11392;57.390;-2.468;2023-05-18T12:20:16;2.50;;;1.60;;
22449;SDS011;11392;57.390;-2.468;2023-05-18T12:22:45;2.08;;;1.70;;
22449;SDS011;11392;57.390;-2.468;2023-05-18T12:25:21;2.25;;;1.42;;
22449;SDS011;11392;57.390;-2.468;2023-05-18T12:27:50;3.50;;;1.85;;
22449;SDS011;11392;57.390;-2.468;2023-05-18T12:32:53;1.27;;;1.10;;
22449;SDS011;11392;57.390;-2.468;2023-05-18T12:35:22;3.15;;;1.58;;
22449;SDS011;11392;57.390;-2.468;2023-05-18T12:37:49;2.35;;;1.52;;
22449;SDS011;11392;57.390;-2.468;2023-05-18T12:40:17;1.98;;;1.35;;
22449;SDS011;11392;57.390;-2.468;2023-05-18T12:42:55;2.10;;;1.52;;
22449;SDS011;11392;57.390;-2.468;2023-05-18T12:45:26;1.67;;;1.17;;
22449;SDS011;11392;57.390;-2.468;2023-05-18T12:47:54;3.15;;;2.05;;
22449;SDS011;11392;57.390;-2.468;2023-05-18T12:50:22;1.65;;;1.55;;
22449;SDS011;11392;57.390;-2.468;2023-05-18T12:52:54;3.10;;;1.30;;
22449;SDS011;11392;57.390;-2.468;2023-05-18T12:55:23;2.38;;;1.58;;
22449;SDS011;11392;57.390;-2.468;2023-05-18T13:00:42;3.58;;;1.70;;
22449;SDS011;11392;57.390;-2.468;2023-05-18T13:03:17;2.80;;;1.80;;
22449;SDS011;11392;57.390;-2.468;2023-05-18T13:06:07;2.70;;;1.83;;
22449;SDS011;11392;57.390;-2.468;2023-05-18T13:08:44;2.80;;;1.70;;
22449;SDS011;11392;57.390;-2.468;2023-05-18T13:11:12;1.85;;;1.50;;
22449;SDS011;11392;57.390;-2.468;2023-05-18T13:16:24;2.28;;;1.50;;
22449;SDS011;11392;57.390;-2.468;2023-05-18T13:18:56;2.03;;;1.73;;
22449;SDS011;11392;57.390;-2.468;2023-05-18T13:21:25;3.60;;;2.10;;
22449;SDS011;11392;57.390;-2.468;2023-05-18T13:23:52;2.70;;;2.03;;
22449;SDS011;11392;57.390;-2.468;2023-05-18T13:26:20;3.67;;;1.73;;
22449;SDS011;11392;57.390;-2.468;2023-05-18T13:28:49;3.63;;;2.05;;
22449;SDS011;11392;57.390;-2.468;2023-05-18T13:31:18;1.98;;;1.63;;
22449;SDS011;11392;57.390;-2.468;2023-05-18T13:33:46;3.08;;;1.80;;
22449;SDS011;11392;57.390;-2.468;2023-05-18T13:36:14;4.25;;;2.38;;
22449;SDS011;11392;57.390;-2.468;2023-05-18T13:38:42;3.05;;;2.00;;
22449;SDS011;11392;57.390;-2.468;2023-05-18T13:41:10;3.22;;;1.90;;
22449;SDS011;11392;57.390;-2.468;2023-05-18T13:43:40;2.63;;;2.00;;
22449;SDS011;11392;57.390;-2.468;2023-05-18T13:46:08;5.13;;;2.20;;
22449;SDS011;11392;57.390;-2.468;2023-05-18T13:48:35;2.08;;;1.75;;
22449;SDS011;11392;57.390;-2.468;2023-05-18T13:51:02;3.45;;;1.83;;
22449;SDS011;11392;57.390;-2.468;2023-05-18T13:53:30;2.63;;;1.92;;
22449;SDS011;11392;57.390;-2.468;2023-05-18T13:55:57;2.60;;;2.03;;
22449;SDS011;11392;57.390;-2.468;2023-05-18T13:58:24;3.92;;;2.13;;
22449;SDS011;11392;57.390;-2.468;2023-05-18T14:00:51;4.07;;;2.10;;
22449;SDS011;11392;57.390;-2.468;2023-05-18T14:03:19;5.45;;;2.13;;
22449;SDS011;11392;57.390;-2.468;2023-05-18T14:05:47;2.40;;;1.90;;
22449;SDS011;11392;57.390;-2.468;2023-05-18T14:08:15;2.20;;;2.00;;
22449;SDS011;11392;57.390;-2.468;2023-05-18T14:10:42;3.92;;;2.20;;
22449;SDS011;11392;57.390;-2.468;2023-05-18T14:13:09;3.85;;;2.33;;
22449;SDS011;11392;57.390;-2.468;2023-05-18T14:15:36;3.67;;;2.33;;
22449;SDS011;11392;57.390;-2.468;2023-05-18T14:18:03;4.25;;;2.42;;
22449;SDS011;11392;57.390;-2.468;2023-05-18T14:20:31;4.05;;;2.17;;
22449;SDS011;11392;57.390;-2.468;2023-05-18T14:22:59;3.58;;;2.17;;
22449;SDS011;11392;57.390;-2.468;2023-05-18T14:25:29;2.40;;;1.98;;
22449;SDS011;11392;57.390;-2.468;2023-05-18T16:11:54;5.10;;;3.78;;
22449;SDS011;11392;57.390;-2.468;2023-05-18T17:05:15;3.92;;;2.85;;
22449;SDS011;11392;57.390;-2.468;2023-05-18T17:07:46;5.40;;;2.67;;
22449;SDS011;11392;57.390;-2.468;2023-05-18T17:10:14;5.00;;;2.65;;
22449;SDS011;11392;57.390;-2.468;2023-05-18T17:15:16;3.67;;;2.55;;
22449;SDS011;11392;57.390;-2.468;2023-05-18T17:17:44;5.25;;;3.13;;
22449;SDS011;11392;57.390;-2.468;2023-05-18T17:20:12;3.03;;;2.42;;
22449;SDS011;11392;57.390;-2.468;2023-05-18T18:07:26;2.45;;;2.03;;
22449;SDS011;11392;57.390;-2.468;2023-05-18T18:40:51;1.23;;;0.73;;
22449;SDS011;11392;57.390;-2.468;2023-05-18T20:10:12;0.65;;;0.65;;
22449;SDS011;11392;57.390;-2.468;2023-05-18T20:24:22;0.40;;;0.40;;
22449;SDS011;11392;57.390;-2.468;2023-05-18T20:26:53;0.57;;;0.57;;
22449;SDS011;11392;57.390;-2.468;2023-05-18T20:32:08;0.50;;;0.45;;
22449;SDS011;11392;57.390;-2.468;2023-05-18T23:21:31;7.95;;;3.47;;
